Αρχική σελίδα
METAR-TAF:

METAR-TAF

Αεροδρόμια :

Λαμπεντούζα, Ιταλία

γεωγραφικό πλάτος: 35-30N, γεωγραφικό μήκος: 012-36E, υψόμετρο: 16 μ

Παρών καιρός

Η αναφορά έγινε 1 ώρα και 14 λεπτά πριν, στις 17:50 UTC
Άνεμος 3 kt από
Θερμοκρασία 17°C
Υγρασία 77%
Πίεση 1011 hPa
Ορατότητα 10 χλμ και άνω
Λίγα νέφη σε ύψος 3000 πόδια

METAR: LICD 181750Z 32003KT 9999 FEW030 17/13 Q1011

Χρόνος: 20:04 (19:04 UTC)

Πρόγνωση Καιρού

Η αναφορά έγινε 2 ώρες και 4 λεπτά πριν, στις 17:00 UTC
Η πρόγνωση ισχύει από τις 18 στις 18 UTC έως τις 19 στις 18 UTC
Άνεμος 15 kt από Ν/ΝΔ
Ορατότητα 10 χλμ και άνω
Διάσπαρτα νέφη σε ύψος 3000 πόδια
Προσωρινά
από 19 στις 12 UTC έως τις 19 στις 18 UTC
Άνεμος 18 kt από ΝΔ με ριπές μέχρι 30 kt

TAF: LICD 181700Z 1818/1918 20015KT 9999 SCT030 TEMPO 1912/1918 22018G30KT

Μετεωρολογικές αναφορές και προγνώσεις για περισσότερα από 4000 αεροδρόμια (δελτία METAR και TAF).

Οι διαθέσιμοι σταθμοί απεικονίζονται στο χάρτη με κίτρινες και κόκκινες κουκκίδες.

Μετακινήστε το ποντίκι πάνω από τις κουκκίδες για να δείτε το όνομα του σταθμού.

Στη συνέχεια, κάντε κλικ για να δείτε τις μετεωρολογικές αναφορές και τις προγνώσεις καιρού.

Για να αλλάξετε το χάρτη: κάντε κλικ στα πράσινα κουμπιά με τον μαύρο σταυρό για να ζουμάρετε, στο πράσινο κουμπί με την παύλα για να αφαιρέσετε το ζουμ ή στα πράσινα βέλη για να αντιπαραβάλλετε χάρτες.


METAR-TAF: